KALW/ALW METAR and TAF weather

Enter ICAO airport designator
Station Type Date Time Source
KALW METAR 2020/11/25 22:01 UTC NOAA

KALW 252201Z 16009KT 10SM -RA BKN027 OVC033 05/02 A3009 RMK AO2 P0000 T00500022


Station Type Date Time Source
KALW Decoded METAR 2020/11/25 22:01 UTC NOAA

WALLA WALLA REGIONAL AIRPORT, WA, United States (KALW) 46-06N 118-17W 363M
Nov 25, 2020 - 05:01 PM EST / 2020.11.25 2201 UTC
Wind: from the SSE (160 degrees) at 10 MPH (9 KT):0
Visibility: 10 mile(s):0
Sky conditions: overcast
Weather: light rain
Precipitation last hour: A trace
Temperature: 41.0 F (5.0 C)
Dew Point: 36.0 F (2.2 C)
Relative Humidity: 82%
Pressure (altimeter): 30.09 in. Hg (1018 hPa)
ob: KALW 252201Z 16009KT 10SM -RA BKN027 OVC033 05/02 A3009 RMK AO2 P0000 T00500022
cycle: 22

Station Type Date Time Source
KALW TAF 2020/11/25 20:57 UTC NOAA

TAF
AMD KALW 251957Z 2520/2618 18012KT P6SM -RA OVC030
FM252200 18007KT P6SM OVC030
FM260600 17006KT P6SM BKN050

Example: see airport list